THY6TR LOWW-LTFM
Flight info
| Callsign | THY6TR |
|---|---|
| Flight time | N/A |
| Altitude | 39000 |
| Route | ADAMA Z648 VEDER L140 ALAMU DCT EPARI DCT TEGRI DCT SODGO DCT NULGO DCT TIMUR DCT XANEX L606 GASRU DCT RILEX |
| Aircraft | B789/H-SDE1E2E3FGHIJ2J3J4J5M1RWXY/LB1D1 |
Departure
| Time | 2026-04-26 00:57 |
|---|---|
| Airport | Vienna International Airport (LOWW) |
Arrival
| Time | N/A |
|---|---|
| Airport | İstanbul Airport (LTFM) |
| Time | Latitude | Longitude | Altitude | Speed | Heading |
|---|---|---|---|---|---|
| 2026-04-26 00:18 | 48.11779 | 16.56026 | 614 ft | 0 kts | 38° |
| 2026-04-26 00:41 | 48.11768 | 16.56012 | 630 ft | 2 kts | 41° |
| 2026-04-26 00:41 | 48.11755 | 16.55995 | 629 ft | 2 kts | 45° |
| 2026-04-26 00:41 | 48.11745 | 16.55976 | 629 ft | 2 kts | 54° |
| 2026-04-26 00:42 | 48.11737 | 16.55955 | 629 ft | 2 kts | 79° |
| 2026-04-26 00:42 | 48.11738 | 16.55930 | 629 ft | 2 kts | 110° |
| 2026-04-26 00:42 | 48.11741 | 16.55920 | 629 ft | 0 kts | 114° |
| 2026-04-26 00:51 | 48.11741 | 16.55922 | 629 ft | 1 kts | 114° |
| 2026-04-26 00:51 | 48.11737 | 16.55935 | 629 ft | 2 kts | 114° |
| 2026-04-26 00:51 | 48.11728 | 16.55962 | 628 ft | 4 kts | 115° |
| 2026-04-26 00:52 | 48.11714 | 16.56008 | 624 ft | 6 kts | 115° |
| 2026-04-26 00:52 | 48.11691 | 16.56078 | 624 ft | 9 kts | 116° |
| 2026-04-26 00:52 | 48.11660 | 16.56174 | 626 ft | 12 kts | 116° |
| 2026-04-26 00:52 | 48.11621 | 16.56294 | 625 ft | 14 kts | 116° |
| 2026-04-26 00:53 | 48.11579 | 16.56422 | 621 ft | 15 kts | 116° |
| 2026-04-26 00:53 | 48.11530 | 16.56573 | 628 ft | 17 kts | 116° |
| 2026-04-26 00:53 | 48.11474 | 16.56743 | 621 ft | 19 kts | 116° |
| 2026-04-26 00:53 | 48.11413 | 16.56932 | 622 ft | 16 kts | 116° |
| 2026-04-26 00:54 | 48.11365 | 16.57082 | 626 ft | 17 kts | 116° |
| 2026-04-26 00:54 | 48.11309 | 16.57254 | 618 ft | 19 kts | 116° |
| 2026-04-26 00:54 | 48.11275 | 16.57292 | 625 ft | 4 kts | 184° |
| 2026-04-26 00:54 | 48.11239 | 16.57277 | 625 ft | 7 kts | 200° |
| 2026-04-26 00:55 | 48.11189 | 16.57242 | 619 ft | 10 kts | 205° |
| 2026-04-26 00:55 | 48.11114 | 16.57187 | 624 ft | 14 kts | 206° |
| 2026-04-26 00:55 | 48.11064 | 16.57119 | 623 ft | 6 kts | 262° |
| 2026-04-26 00:55 | 48.11072 | 16.57050 | 628 ft | 7 kts | 294° |
| 2026-04-26 00:56 | 48.11078 | 16.57032 | 628 ft | 0 kts | 297° |
| 2026-04-26 00:56 | 48.11096 | 16.56980 | 621 ft | 23 kts | 297° |
| 2026-04-26 00:56 | 48.11255 | 16.56489 | 625 ft | 82 kts | 296° |
| 2026-04-26 00:56 | 48.11590 | 16.55461 | 626 ft | 135 kts | 296° |
| 2026-04-26 00:57 | 48.12075 | 16.54013 | 779 ft | 162 kts | 301° |
| 2026-04-26 00:57 | 48.12511 | 16.52667 | 1824 ft | 130 kts | 288° |
| 2026-04-26 00:57 | 48.12338 | 16.51224 | 2156 ft | 169 kts | 253° |
| 2026-04-26 00:57 | 48.11307 | 16.49904 | 2468 ft | 228 kts | 208° |
| 2026-04-26 00:58 | 48.09702 | 16.49444 | 3457 ft | 237 kts | 193° |
| 2026-04-26 00:58 | 48.08076 | 16.49164 | 4579 ft | 234 kts | 194° |
| 2026-04-26 00:58 | 48.06459 | 16.48811 | 5687 ft | 233 kts | 192° |
| 2026-04-26 00:58 | 48.04829 | 16.49312 | 6458 ft | 257 kts | 159° |
| 2026-04-26 00:59 | 48.03741 | 16.50190 | 6774 ft | 275 kts | 153° |
| 2026-04-26 00:59 | 48.02048 | 16.51793 | 7192 ft | 300 kts | 149° |
| 2026-04-26 00:59 | 48.00260 | 16.53536 | 8001 ft | 304 kts | 149° |
| 2026-04-26 00:59 | 47.98525 | 16.55271 | 8909 ft | 307 kts | 145° |
| 2026-04-26 01:00 | 47.96904 | 16.57469 | 9490 ft | 324 kts | 129° |
| 2026-04-26 01:00 | 47.95958 | 16.60570 | 10139 ft | 335 kts | 92° |
| 2026-04-26 01:00 | 47.96379 | 16.63812 | 11473 ft | 304 kts | 58° |
| 2026-04-26 01:00 | 47.97266 | 16.66586 | 12715 ft | 302 kts | 62° |
| 2026-04-26 01:01 | 47.98004 | 16.69706 | 13011 ft | 334 kts | 69° |
| 2026-04-26 01:01 | 47.98671 | 16.73199 | 13261 ft | 362 kts | 70° |
| 2026-04-26 01:01 | 47.99431 | 16.76877 | 13915 ft | 373 kts | 71° |
| 2026-04-26 01:01 | 47.99791 | 16.80707 | 14727 ft | 381 kts | 83° |
| 2026-04-26 01:02 | 48.00050 | 16.84680 | 15539 ft | 385 kts | 81° |
| 2026-04-26 01:02 | 48.00300 | 16.88712 | 16343 ft | 391 kts | 82° |
| 2026-04-26 01:02 | 48.00519 | 16.92791 | 17128 ft | 396 kts | 83° |
| 2026-04-26 01:02 | 48.00738 | 16.96864 | 17903 ft | 401 kts | 83° |
| 2026-04-26 01:03 | 48.00975 | 17.01042 | 18620 ft | 405 kts | 82° |
| 2026-04-26 01:03 | 48.01010 | 17.05280 | 19287 ft | 411 kts | 95° |
| 2026-04-26 01:03 | 48.00660 | 17.09564 | 19924 ft | 415 kts | 94° |
| 2026-04-26 01:03 | 48.00348 | 17.13829 | 20597 ft | 418 kts | 94° |
| 2026-04-26 01:04 | 48.00022 | 17.18199 | 21243 ft | 422 kts | 94° |
| 2026-04-26 01:04 | 47.99684 | 17.22525 | 21880 ft | 426 kts | 94° |
| 2026-04-26 01:04 | 47.99334 | 17.26989 | 22412 ft | 432 kts | 94° |
| 2026-04-26 01:04 | 47.98988 | 17.31448 | 22965 ft | 437 kts | 94° |
| 2026-04-26 01:05 | 47.98388 | 17.35933 | 23546 ft | 442 kts | 106° |
| 2026-04-26 01:05 | 47.97436 | 17.40289 | 23960 ft | 447 kts | 106° |
| 2026-04-26 01:05 | 47.96469 | 17.44729 | 24472 ft | 448 kts | 105° |
| 2026-04-26 01:05 | 47.95504 | 17.49118 | 24995 ft | 450 kts | 105° |
| 2026-04-26 01:06 | 47.94518 | 17.53598 | 25443 ft | 452 kts | 105° |
| 2026-04-26 01:06 | 47.93544 | 17.58030 | 25912 ft | 455 kts | 105° |
| 2026-04-26 01:06 | 47.92552 | 17.62531 | 26359 ft | 458 kts | 105° |
| 2026-04-26 01:06 | 47.91547 | 17.67078 | 26813 ft | 460 kts | 105° |
| 2026-04-26 01:07 | 47.90559 | 17.71534 | 27244 ft | 462 kts | 105° |
| 2026-04-26 01:07 | 47.89555 | 17.76054 | 27664 ft | 464 kts | 105° |
| 2026-04-26 01:07 | 47.88546 | 17.80590 | 28084 ft | 467 kts | 105° |
| 2026-04-26 01:07 | 47.87514 | 17.85221 | 28488 ft | 469 kts | 105° |
| 2026-04-26 01:08 | 47.86480 | 17.89848 | 28873 ft | 472 kts | 105° |
| 2026-04-26 01:08 | 47.85450 | 17.94447 | 29259 ft | 474 kts | 105° |
| 2026-04-26 01:08 | 47.84328 | 17.99097 | 29628 ft | 478 kts | 112° |
| 2026-04-26 01:08 | 47.82930 | 18.03607 | 29937 ft | 481 kts | 113° |
| 2026-04-26 01:09 | 47.81498 | 18.08131 | 30268 ft | 483 kts | 113° |
| 2026-04-26 01:09 | 47.80084 | 18.12627 | 30555 ft | 485 kts | 113° |
| 2026-04-26 01:09 | 47.78655 | 18.17220 | 30870 ft | 487 kts | 113° |
| 2026-04-26 01:09 | 47.77234 | 18.21774 | 31158 ft | 489 kts | 113° |
| 2026-04-26 01:10 | 47.75786 | 18.26367 | 31449 ft | 492 kts | 113° |
| 2026-04-26 01:10 | 47.74369 | 18.31027 | 31708 ft | 492 kts | 107° |
| 2026-04-26 01:10 | 47.73501 | 18.35883 | 31972 ft | 489 kts | 95° |
| 2026-04-26 01:10 | 47.73089 | 18.40923 | 32159 ft | 492 kts | 94° |
| 2026-04-26 01:11 | 47.72705 | 18.46020 | 32364 ft | 495 kts | 93° |
| 2026-04-26 01:11 | 47.72328 | 18.51077 | 32645 ft | 497 kts | 93° |
| 2026-04-26 01:11 | 47.71932 | 18.56204 | 32880 ft | 499 kts | 94° |
| 2026-04-26 01:11 | 47.71529 | 18.61349 | 33125 ft | 501 kts | 94° |
| 2026-04-26 01:12 | 47.71131 | 18.66451 | 33354 ft | 503 kts | 94° |
| 2026-04-26 01:12 | 47.70729 | 18.71618 | 33605 ft | 504 kts | 94° |
| 2026-04-26 01:12 | 47.70320 | 18.76826 | 33828 ft | 506 kts | 94° |
| 2026-04-26 01:12 | 47.69908 | 18.81988 | 34040 ft | 509 kts | 94° |
| 2026-04-26 01:13 | 47.68870 | 18.92454 | 34263 ft | 518 kts | 104° |
| 2026-04-26 01:13 | 47.67578 | 18.97509 | 34413 ft | 523 kts | 116° |
| 2026-04-26 01:13 | 47.65693 | 19.02067 | 34585 ft | 525 kts | 128° |
| 2026-04-26 01:14 | 47.63276 | 19.06136 | 34787 ft | 525 kts | 134° |
| 2026-04-26 01:14 | 47.60752 | 19.10082 | 35021 ft | 525 kts | 134° |
| 2026-04-26 01:14 | 47.58243 | 19.13937 | 35277 ft | 524 kts | 134° |
| 2026-04-26 01:14 | 47.55702 | 19.17839 | 35547 ft | 523 kts | 135° |
| 2026-04-26 01:15 | 47.53183 | 19.21739 | 35882 ft | 521 kts | 135° |
| 2026-04-26 01:15 | 47.50701 | 19.25577 | 36141 ft | 520 kts | 135° |
| 2026-04-26 01:15 | 47.48181 | 19.29449 | 36399 ft | 519 kts | 135° |
| 2026-04-26 01:15 | 47.45701 | 19.33248 | 36656 ft | 518 kts | 135° |
| 2026-04-26 01:16 | 47.43183 | 19.37112 | 36909 ft | 517 kts | 135° |
| 2026-04-26 01:16 | 47.40710 | 19.40905 | 37186 ft | 515 kts | 135° |
| 2026-04-26 01:16 | 47.38207 | 19.44734 | 37496 ft | 513 kts | 136° |
| 2026-04-26 01:16 | 47.35743 | 19.48494 | 37654 ft | 515 kts | 136° |
| 2026-04-26 01:17 | 47.30728 | 19.56136 | 37951 ft | 516 kts | 136° |
| 2026-04-26 01:17 | 47.28256 | 19.59897 | 38144 ft | 516 kts | 136° |
| 2026-04-26 01:17 | 47.25734 | 19.63725 | 38348 ft | 516 kts | 136° |
| 2026-04-26 01:18 | 47.23229 | 19.67521 | 38533 ft | 516 kts | 136° |
| 2026-04-26 01:18 | 47.20718 | 19.71325 | 38677 ft | 516 kts | 136° |
| 2026-04-26 01:18 | 47.18246 | 19.75062 | 38815 ft | 516 kts | 136° |
| 2026-04-26 01:18 | 47.15714 | 19.78885 | 38881 ft | 518 kts | 136° |
| 2026-04-26 01:19 | 47.10652 | 19.86508 | 38930 ft | 523 kts | 136° |
| 2026-04-26 01:19 | 47.05600 | 19.94099 | 38930 ft | 519 kts | 136° |
| 2026-04-26 01:20 | 47.00566 | 20.01635 | 38931 ft | 518 kts | 136° |
| 2026-04-26 01:20 | 46.95517 | 20.09178 | 38925 ft | 519 kts | 136° |
| 2026-04-26 01:21 | 46.90460 | 20.16707 | 38928 ft | 520 kts | 137° |
| 2026-04-26 01:21 | 46.85367 | 20.24270 | 38928 ft | 521 kts | 137° |
| 2026-04-26 01:22 | 46.80291 | 20.31786 | 38930 ft | 518 kts | 137° |